sensor_id;sensor_type;location;lat;lon;timestamp;P1;P2;P0
77538;PMS7003;67783;51.656;16.106;2023-10-19T00:00:50;10;9;5
77538;PMS7003;67783;51.656;16.106;2023-10-19T00:04:01;11;10;6
77538;PMS7003;67783;51.656;16.106;2023-10-19T00:07:06;9;9;7
77538;PMS7003;67783;51.656;16.106;2023-10-19T00:10:13;19;13;7
77538;PMS7003;67783;51.656;16.106;2023-10-19T00:13:19;8;8;4
77538;PMS7003;67783;51.656;16.106;2023-10-19T00:16:32;9;7;5
77538;PMS7003;67783;51.656;16.106;2023-10-19T00:19:36;11;9;8
77538;PMS7003;67783;51.656;16.106;2023-10-19T00:22:48;6;4;2
77538;PMS7003;67783;51.656;16.106;2023-10-19T00:26:00;13;10;7
77538;PMS7003;67783;51.656;16.106;2023-10-19T00:29:15;7;7;5
77538;PMS7003;67783;51.656;16.106;2023-10-19T00:32:28;12;10;6
77538;PMS7003;67783;51.656;16.106;2023-10-19T00:35:33;12;11;8
77538;PMS7003;67783;51.656;16.106;2023-10-19T00:38:37;6;6;4
77538;PMS7003;67783;51.656;16.106;2023-10-19T00:41:40;11;9;6
77538;PMS7003;67783;51.656;16.106;2023-10-19T00:44:43;13;12;8
77538;PMS7003;67783;51.656;16.106;2023-10-19T00:47:51;11;9;7
77538;PMS7003;67783;51.656;16.106;2023-10-19T00:50:55;10;10;5
77538;PMS7003;67783;51.656;16.106;2023-10-19T00:54:17;10;8;7
77538;PMS7003;67783;51.656;16.106;2023-10-19T00:57:18;8;7;6
77538;PMS7003;67783;51.656;16.106;2023-10-19T01:00:33;10;9;6
77538;PMS7003;67783;51.656;16.106;2023-10-19T01:03:41;9;8;6
77538;PMS7003;67783;51.656;16.106;2023-10-19T01:06:45;12;11;9
77538;PMS7003;67783;51.656;16.106;2023-10-19T01:09:59;11;9;6
77538;PMS7003;67783;51.656;16.106;2023-10-19T01:13:22;9;8;6
77538;PMS7003;67783;51.656;16.106;2023-10-19T01:16:35;11;9;6
77538;PMS7003;67783;51.656;16.106;2023-10-19T01:19:37;12;10;7
77538;PMS7003;67783;51.656;16.106;2023-10-19T01:26:10;10;8;6
77538;PMS7003;67783;51.656;16.106;2023-10-19T01:29:18;9;9;8
77538;PMS7003;67783;51.656;16.106;2023-10-19T01:32:28;11;10;6
77538;PMS7003;67783;51.656;16.106;2023-10-19T01:35:31;8;8;6
77538;PMS7003;67783;51.656;16.106;2023-10-19T01:38:43;13;11;7
77538;PMS7003;67783;51.656;16.106;2023-10-19T01:41:49;14;9;6
77538;PMS7003;67783;51.656;16.106;2023-10-19T01:44:51;10;9;6
77538;PMS7003;67783;51.656;16.106;2023-10-19T01:47:53;10;8;6
77538;PMS7003;67783;51.656;16.106;2023-10-19T01:50:55;16;7;5
77538;PMS7003;67783;51.656;16.106;2023-10-19T01:53:56;9;7;6
77538;PMS7003;67783;51.656;16.106;2023-10-19T01:56:59;10;9;6
77538;PMS7003;67783;51.656;16.106;2023-10-19T02:00:01;9;8;6
77538;PMS7003;67783;51.656;16.106;2023-10-19T02:03:15;13;13;8
77538;PMS7003;67783;51.656;16.106;2023-10-19T02:06:18;9;9;5
77538;PMS7003;67783;51.656;16.106;2023-10-19T02:09:35;10;10;6
77538;PMS7003;67783;51.656;16.106;2023-10-19T02:12:40;8;7;5
77538;PMS7003;67783;51.656;16.106;2023-10-19T02:15:43;10;9;6
77538;PMS7003;67783;51.656;16.106;2023-10-19T02:18:44;11;8;4
77538;PMS7003;67783;51.656;16.106;2023-10-19T02:21:50;11;9;5
77538;PMS7003;67783;51.656;16.106;2023-10-19T02:24:53;13;11;8
77538;PMS7003;67783;51.656;16.106;2023-10-19T02:28:01;9;9;7
77538;PMS7003;67783;51.656;16.106;2023-10-19T02:31:09;10;9;6
77538;PMS7003;67783;51.656;16.106;2023-10-19T02:34:23;9;6;4
77538;PMS7003;67783;51.656;16.106;2023-10-19T02:37:28;11;9;6
77538;PMS7003;67783;51.656;16.106;2023-10-19T02:40:30;9;7;5
77538;PMS7003;67783;51.656;16.106;2023-10-19T02:43:32;10;10;7
77538;PMS7003;67783;51.656;16.106;2023-10-19T02:46:36;12;9;5
77538;PMS7003;67783;51.656;16.106;2023-10-19T02:49:42;7;6;5
77538;PMS7003;67783;51.656;16.106;2023-10-19T02:52:54;7;7;6
77538;PMS7003;67783;51.656;16.106;2023-10-19T02:55:55;10;10;6
77538;PMS7003;67783;51.656;16.106;2023-10-19T02:59:05;12;8;7
77538;PMS7003;67783;51.656;16.106;2023-10-19T03:02:15;8;8;6
77538;PMS7003;67783;51.656;16.106;2023-10-19T03:05:18;11;7;5
77538;PMS7003;67783;51.656;16.106;2023-10-19T03:08:21;10;10;6
77538;PMS7003;67783;51.656;16.106;2023-10-19T03:11:27;10;10;8
77538;PMS7003;67783;51.656;16.106;2023-10-19T03:14:29;11;11;7
77538;PMS7003;67783;51.656;16.106;2023-10-19T03:17:36;9;9;7
77538;PMS7003;67783;51.656;16.106;2023-10-19T03:20:38;10;10;7
77538;PMS7003;67783;51.656;16.106;2023-10-19T03:23:42;14;12;9
77538;PMS7003;67783;51.656;16.106;2023-10-19T03:26:43;13;9;6
77538;PMS7003;67783;51.656;16.106;2023-10-19T03:29:50;12;11;8
77538;PMS7003;67783;51.656;16.106;2023-10-19T03:32:57;15;10;6
77538;PMS7003;67783;51.656;16.106;2023-10-19T03:36:00;9;7;6
77538;PMS7003;67783;51.656;16.106;2023-10-19T03:39:01;9;8;6
77538;PMS7003;67783;51.656;16.106;2023-10-19T03:42:24;11;11;6
77538;PMS7003;67783;51.656;16.106;2023-10-19T03:45:33;9;9;6
77538;PMS7003;67783;51.656;16.106;2023-10-19T03:48:44;9;9;7
77538;PMS7003;67783;51.656;16.106;2023-10-19T03:51:50;8;7;5
77538;PMS7003;67783;51.656;16.106;2023-10-19T03:55:04;9;9;7
77538;PMS7003;67783;51.656;16.106;2023-10-19T03:58:13;9;9;6
77538;PMS7003;67783;51.656;16.106;2023-10-19T04:01:18;11;6;3
77538;PMS7003;67783;51.656;16.106;2023-10-19T04:04:21;7;7;5
77538;PMS7003;67783;51.656;16.106;2023-10-19T04:07:23;9;7;6
77538;PMS7003;67783;51.656;16.106;2023-10-19T04:10:26;14;9;7
77538;PMS7003;67783;51.656;16.106;2023-10-19T04:13:36;13;10;7
77538;PMS7003;67783;51.656;16.106;2023-10-19T04:16:41;8;6;4
77538;PMS7003;67783;51.656;16.106;2023-10-19T04:19:46;8;8;6
77538;PMS7003;67783;51.656;16.106;2023-10-19T04:22:50;10;9;7
77538;PMS7003;67783;51.656;16.106;2023-10-19T04:25:51;8;7;5
77538;PMS7003;67783;51.656;16.106;2023-10-19T04:28:57;11;6;4
77538;PMS7003;67783;51.656;16.106;2023-10-19T04:32:01;11;9;6
77538;PMS7003;67783;51.656;16.106;2023-10-19T04:35:07;8;8;5
77538;PMS7003;67783;51.656;16.106;2023-10-19T04:38:10;9;8;6
77538;PMS7003;67783;51.656;16.106;2023-10-19T04:41:11;6;6;4
77538;PMS7003;67783;51.656;16.106;2023-10-19T04:44:13;12;7;5
77538;PMS7003;67783;51.656;16.106;2023-10-19T04:47:22;9;8;6
77538;PMS7003;67783;51.656;16.106;2023-10-19T04:50:24;9;8;7
77538;PMS7003;67783;51.656;16.106;2023-10-19T04:53:25;11;10;7
77538;PMS7003;67783;51.656;16.106;2023-10-19T04:56:27;7;6;6
77538;PMS7003;67783;51.656;16.106;2023-10-19T04:59:29;10;8;5
77538;PMS7003;67783;51.656;16.106;2023-10-19T05:02:43;8;8;5
77538;PMS7003;67783;51.656;16.106;2023-10-19T05:05:45;12;10;7
77538;PMS7003;67783;51.656;16.106;2023-10-19T05:08:46;8;7;6
77538;PMS7003;67783;51.656;16.106;2023-10-19T05:11:48;10;8;6
77538;PMS7003;67783;51.656;16.106;2023-10-19T05:14:49;7;6;5
77538;PMS7003;67783;51.656;16.106;2023-10-19T05:17:51;8;7;5
77538;PMS7003;67783;51.656;16.106;2023-10-19T05:20:54;13;7;5
77538;PMS7003;67783;51.656;16.106;2023-10-19T05:24:01;10;9;7
77538;PMS7003;67783;51.656;16.106;2023-10-19T05:27:03;10;7;5
77538;PMS7003;67783;51.656;16.106;2023-10-19T05:30:06;13;9;7
77538;PMS7003;67783;51.656;16.106;2023-10-19T05:33:11;8;7;5
77538;PMS7003;67783;51.656;16.106;2023-10-19T05:36:12;9;9;6
77538;PMS7003;67783;51.656;16.106;2023-10-19T05:39:20;12;9;7
77538;PMS7003;67783;51.656;16.106;2023-10-19T05:42:25;12;8;7
77538;PMS7003;67783;51.656;16.106;2023-10-19T05:45:30;11;11;6
77538;PMS7003;67783;51.656;16.106;2023-10-19T05:48:33;9;7;5
77538;PMS7003;67783;51.656;16.106;2023-10-19T05:51:35;9;9;6
77538;PMS7003;67783;51.656;16.106;2023-10-19T05:54:40;9;7;4
77538;PMS7003;67783;51.656;16.106;2023-10-19T05:57:42;4;2;0
77538;PMS7003;67783;51.656;16.106;2023-10-19T06:00:45;13;11;8
77538;PMS7003;67783;51.656;16.106;2023-10-19T06:03:47;12;9;6
77538;PMS7003;67783;51.656;16.106;2023-10-19T06:06:49;12;10;6
77538;PMS7003;67783;51.656;16.106;2023-10-19T06:10:01;11;10;7
77538;PMS7003;67783;51.656;16.106;2023-10-19T06:13:05;13;12;7
77538;PMS7003;67783;51.656;16.106;2023-10-19T06:16:10;8;7;5
77538;PMS7003;67783;51.656;16.106;2023-10-19T06:19:12;12;11;8
77538;PMS7003;67783;51.656;16.106;2023-10-19T06:22:13;10;8;5
77538;PMS7003;67783;51.656;16.106;2023-10-19T06:25:22;14;12;8
77538;PMS7003;67783;51.656;16.106;2023-10-19T06:28:25;8;8;5
77538;PMS7003;67783;51.656;16.106;2023-10-19T06:31:26;12;11;7
77538;PMS7003;67783;51.656;16.106;2023-10-19T06:34:29;12;12;8
77538;PMS7003;67783;51.656;16.106;2023-10-19T06:37:32;12;8;6
77538;PMS7003;67783;51.656;16.106;2023-10-19T06:40:42;13;6;5
77538;PMS7003;67783;51.656;16.106;2023-10-19T06:43:44;12;10;7
77538;PMS7003;67783;51.656;16.106;2023-10-19T06:46:46;14;12;9
77538;PMS7003;67783;51.656;16.106;2023-10-19T06:49:47;17;14;11
77538;PMS7003;67783;51.656;16.106;2023-10-19T06:52:49;16;12;9
77538;PMS7003;67783;51.656;16.106;2023-10-19T06:56:03;7;4;3
77538;PMS7003;67783;51.656;16.106;2023-10-19T06:59:05;17;11;7
77538;PMS7003;67783;51.656;16.106;2023-10-19T07:02:07;9;8;6
77538;PMS7003;67783;51.656;16.106;2023-10-19T07:05:09;14;13;8
77538;PMS7003;67783;51.656;16.106;2023-10-19T07:08:12;13;12;8
77538;PMS7003;67783;51.656;16.106;2023-10-19T07:11:24;7;7;6
77538;PMS7003;67783;51.656;16.106;2023-10-19T07:14:25;14;10;6
77538;PMS7003;67783;51.656;16.106;2023-10-19T07:17:28;11;9;7
77538;PMS7003;67783;51.656;16.106;2023-10-19T07:20:29;12;12;7
77538;PMS7003;67783;51.656;16.106;2023-10-19T07:23:38;13;11;8
77538;PMS7003;67783;51.656;16.106;2023-10-19T07:26:45;10;10;6
77538;PMS7003;67783;51.656;16.106;2023-10-19T07:29:57;14;13;9
77538;PMS7003;67783;51.656;16.106;2023-10-19T07:33:00;13;12;8
77538;PMS7003;67783;51.656;16.106;2023-10-19T07:36:12;20;17;11
77538;PMS7003;67783;51.656;16.106;2023-10-19T07:39:19;13;12;10
77538;PMS7003;67783;51.656;16.106;2023-10-19T07:42:23;12;10;8
77538;PMS7003;67783;51.656;16.106;2023-10-19T07:45:26;13;12;9
77538;PMS7003;67783;51.656;16.106;2023-10-19T07:48:29;13;9;8
77538;PMS7003;67783;51.656;16.106;2023-10-19T07:51:34;13;11;8
77538;PMS7003;67783;51.656;16.106;2023-10-19T07:54:35;17;9;6
77538;PMS7003;67783;51.656;16.106;2023-10-19T07:57:37;11;10;7
77538;PMS7003;67783;51.656;16.106;2023-10-19T08:00:41;13;11;9
77538;PMS7003;67783;51.656;16.106;2023-10-19T08:03:43;12;12;8
77538;PMS7003;67783;51.656;16.106;2023-10-19T08:06:54;13;13;8
77538;PMS7003;67783;51.656;16.106;2023-10-19T08:09:56;9;8;5
77538;PMS7003;67783;51.656;16.106;2023-10-19T08:12:59;14;9;7
77538;PMS7003;67783;51.656;16.106;2023-10-19T08:16:04;10;8;6
77538;PMS7003;67783;51.656;16.106;2023-10-19T08:19:08;10;9;7
77538;PMS7003;67783;51.656;16.106;2023-10-19T08:22:15;12;10;8
77538;PMS7003;67783;51.656;16.106;2023-10-19T08:25:17;9;7;5
77538;PMS7003;67783;51.656;16.106;2023-10-19T08:28:18;11;11;6
77538;PMS7003;67783;51.656;16.106;2023-10-19T08:31:21;12;10;7
77538;PMS7003;67783;51.656;16.106;2023-10-19T08:34:22;20;15;11
77538;PMS7003;67783;51.656;16.106;2023-10-19T08:37:36;14;13;10
77538;PMS7003;67783;51.656;16.106;2023-10-19T08:40:40;17;11;8
77538;PMS7003;67783;51.656;16.106;2023-10-19T08:43:41;9;8;4
77538;PMS7003;67783;51.656;16.106;2023-10-19T08:46:43;14;12;7
77538;PMS7003;67783;51.656;16.106;2023-10-19T08:49:48;0;0;0
77538;PMS7003;67783;51.656;16.106;2023-10-19T08:52:57;16;15;9
77538;PMS7003;67783;51.656;16.106;2023-10-19T08:55:59;15;12;8
77538;PMS7003;67783;51.656;16.106;2023-10-19T08:59:04;14;12;8
77538;PMS7003;67783;51.656;16.106;2023-10-19T09:02:07;16;12;9
77538;PMS7003;67783;51.656;16.106;2023-10-19T09:05:09;17;12;8
77538;PMS7003;67783;51.656;16.106;2023-10-19T09:08:22;13;12;8
77538;PMS7003;67783;51.656;16.106;2023-10-19T09:11:23;14;13;10
77538;PMS7003;67783;51.656;16.106;2023-10-19T09:17:44;18;13;8
77538;PMS7003;67783;51.656;16.106;2023-10-19T09:20:50;17;14;11
77538;PMS7003;67783;51.656;16.106;2023-10-19T09:23:57;13;12;9
77538;PMS7003;67783;51.656;16.106;2023-10-19T09:26:58;16;14;10
77538;PMS7003;67783;51.656;16.106;2023-10-19T09:30:00;20;14;9
77538;PMS7003;67783;51.656;16.106;2023-10-19T09:33:09;17;14;9
77538;PMS7003;67783;51.656;16.106;2023-10-19T09:36:11;14;11;8
77538;PMS7003;67783;51.656;16.106;2023-10-19T09:39:14;15;13;10
77538;PMS7003;67783;51.656;16.106;2023-10-19T09:42:17;16;16;11
77538;PMS7003;67783;51.656;16.106;2023-10-19T09:45:19;11;10;7
77538;PMS7003;67783;51.656;16.106;2023-10-19T09:48:26;14;11;7
77538;PMS7003;67783;51.656;16.106;2023-10-19T09:51:27;13;12;9
77538;PMS7003;67783;51.656;16.106;2023-10-19T10:01:03;10;10;6
77538;PMS7003;67783;51.656;16.106;2023-10-19T10:04:30;12;11;8
77538;PMS7003;67783;51.656;16.106;2023-10-19T10:07:25;15;13;8
77538;PMS7003;67783;51.656;16.106;2023-10-19T10:10:28;18;12;8
77538;PMS7003;67783;51.656;16.106;2023-10-19T10:13:36;12;11;8
77538;PMS7003;67783;51.656;16.106;2023-10-19T10:16:45;16;15;10
77538;PMS7003;67783;51.656;16.106;2023-10-19T10:19:47;13;12;9
77538;PMS7003;67783;51.656;16.106;2023-10-19T10:26:12;17;17;9
77538;PMS7003;67783;51.656;16.106;2023-10-19T10:29:15;20;15;8
77538;PMS7003;67783;51.656;16.106;2023-10-19T10:38:56;13;12;8
77538;PMS7003;67783;51.656;16.106;2023-10-19T10:42:06;15;10;7
77538;PMS7003;67783;51.656;16.106;2023-10-19T10:45:18;16;16;12
77538;PMS7003;67783;51.656;16.106;2023-10-19T10:48:22;19;14;11
77538;PMS7003;67783;51.656;16.106;2023-10-19T10:51:24;17;15;12
77538;PMS7003;67783;51.656;16.106;2023-10-19T10:54:37;19;16;11
77538;PMS7003;67783;51.656;16.106;2023-10-19T10:57:40;19;19;13
77538;PMS7003;67783;51.656;16.106;2023-10-19T11:00:43;17;13;9
77538;PMS7003;67783;51.656;16.106;2023-10-19T11:03:49;16;12;8
77538;PMS7003;67783;51.656;16.106;2023-10-19T11:06:51;15;13;9
77538;PMS7003;67783;51.656;16.106;2023-10-19T11:09:58;16;13;11
77538;PMS7003;67783;51.656;16.106;2023-10-19T11:16:08;15;12;9
77538;PMS7003;67783;51.656;16.106;2023-10-19T11:19:10;16;15;9
77538;PMS7003;67783;51.656;16.106;2023-10-19T11:22:12;17;16;14
77538;PMS7003;67783;51.656;16.106;2023-10-19T11:25:20;14;14;10
77538;PMS7003;67783;51.656;16.106;2023-10-19T11:28:22;15;15;10
77538;PMS7003;67783;51.656;16.106;2023-10-19T11:31:28;17;16;13
77538;PMS7003;67783;51.656;16.106;2023-10-19T11:34:45;13;12;10
77538;PMS7003;67783;51.656;16.106;2023-10-19T11:37:49;13;10;8
77538;PMS7003;67783;51.656;16.106;2023-10-19T11:40:53;20;15;10
77538;PMS7003;67783;51.656;16.106;2023-10-19T11:43:54;17;14;9
77538;PMS7003;67783;51.656;16.106;2023-10-19T11:46:56;15;13;8
77538;PMS7003;67783;51.656;16.106;2023-10-19T11:50:06;16;16;12
77538;PMS7003;67783;51.656;16.106;2023-10-19T11:53:08;18;18;13
77538;PMS7003;67783;51.656;16.106;2023-10-19T11:56:11;16;13;8
77538;PMS7003;67783;51.656;16.106;2023-10-19T11:59:16;21;19;12
77538;PMS7003;67783;51.656;16.106;2023-10-19T12:02:18;16;15;10
77538;PMS7003;67783;51.656;16.106;2023-10-19T12:05:26;16;15;9
77538;PMS7003;67783;51.656;16.106;2023-10-19T12:08:29;16;14;8
77538;PMS7003;67783;51.656;16.106;2023-10-19T12:11:31;14;13;10
77538;PMS7003;67783;51.656;16.106;2023-10-19T12:14:32;15;13;8
77538;PMS7003;67783;51.656;16.106;2023-10-19T12:17:37;22;19;10
77538;PMS7003;67783;51.656;16.106;2023-10-19T12:20:47;18;15;10
77538;PMS7003;67783;51.656;16.106;2023-10-19T12:23:49;23;16;12
77538;PMS7003;67783;51.656;16.106;2023-10-19T12:27:21;15;13;6
77538;PMS7003;67783;51.656;16.106;2023-10-19T12:30:25;17;12;9
77538;PMS7003;67783;51.656;16.106;2023-10-19T12:33:47;19;14;9
77538;PMS7003;67783;51.656;16.106;2023-10-19T12:36:49;14;14;10
77538;PMS7003;67783;51.656;16.106;2023-10-19T12:39:52;18;15;11
77538;PMS7003;67783;51.656;16.106;2023-10-19T12:42:56;19;18;12
77538;PMS7003;67783;51.656;16.106;2023-10-19T12:45:59;16;14;10
77538;PMS7003;67783;51.656;16.106;2023-10-19T12:49:08;14;13;10
77538;PMS7003;67783;51.656;16.106;2023-10-19T12:52:17;16;14;10
77538;PMS7003;67783;51.656;16.106;2023-10-19T12:55:18;15;13;10
77538;PMS7003;67783;51.656;16.106;2023-10-19T12:58:20;20;19;11
77538;PMS7003;67783;51.656;16.106;2023-10-19T13:01:22;17;13;9
77538;PMS7003;67783;51.656;16.106;2023-10-19T13:04:29;10;10;8
77538;PMS7003;67783;51.656;16.106;2023-10-19T13:07:32;16;13;11
77538;PMS7003;67783;51.656;16.106;2023-10-19T13:10:35;18;13;8
77538;PMS7003;67783;51.656;16.106;2023-10-19T13:13:43;18;16;10
77538;PMS7003;67783;51.656;16.106;2023-10-19T13:16:45;17;16;12
77538;PMS7003;67783;51.656;16.106;2023-10-19T13:19:51;16;14;9
77538;PMS7003;67783;51.656;16.106;2023-10-19T13:22:59;21;14;10
77538;PMS7003;67783;51.656;16.106;2023-10-19T13:26:03;15;13;10
77538;PMS7003;67783;51.656;16.106;2023-10-19T13:29:18;22;17;13
77538;PMS7003;67783;51.656;16.106;2023-10-19T13:32:23;25;16;10
77538;PMS7003;67783;51.656;16.106;2023-10-19T13:35:25;19;14;10
77538;PMS7003;67783;51.656;16.106;2023-10-19T13:38:26;14;13;10
77538;PMS7003;67783;51.656;16.106;2023-10-19T13:41:28;16;14;8
77538;PMS7003;67783;51.656;16.106;2023-10-19T13:44:38;14;14;8
77538;PMS7003;67783;51.656;16.106;2023-10-19T13:47:40;19;16;11
77538;PMS7003;67783;51.656;16.106;2023-10-19T13:50:42;18;17;11
77538;PMS7003;67783;51.656;16.106;2023-10-19T13:53:49;29;18;11
77538;PMS7003;67783;51.656;16.106;2023-10-19T13:56:51;16;13;9
77538;PMS7003;67783;51.656;16.106;2023-10-19T13:59:58;18;15;10
77538;PMS7003;67783;51.656;16.106;2023-10-19T14:03:01;17;16;11
77538;PMS7003;67783;51.656;16.106;2023-10-19T14:06:11;21;15;10
77538;PMS7003;67783;51.656;16.106;2023-10-19T14:09:25;14;14;8
77538;PMS7003;67783;51.656;16.106;2023-10-19T14:12:29;19;16;10
77538;PMS7003;67783;51.656;16.106;2023-10-19T14:15:30;18;15;9
77538;PMS7003;67783;51.656;16.106;2023-10-19T14:18:35;20;11;9
77538;PMS7003;67783;51.656;16.106;2023-10-19T14:21:37;16;15;10
77538;PMS7003;67783;51.656;16.106;2023-10-19T14:24:45;16;16;11
77538;PMS7003;67783;51.656;16.106;2023-10-19T14:27:48;24;14;9
77538;PMS7003;67783;51.656;16.106;2023-10-19T14:30:52;19;15;9
77538;PMS7003;67783;51.656;16.106;2023-10-19T14:33:54;15;14;11
77538;PMS7003;67783;51.656;16.106;2023-10-19T14:36:55;14;12;8
77538;PMS7003;67783;51.656;16.106;2023-10-19T14:40:09;22;20;12
77538;PMS7003;67783;51.656;16.106;2023-10-19T14:43:16;16;15;9
77538;PMS7003;67783;51.656;16.106;2023-10-19T14:46:18;15;13;10
77538;PMS7003;67783;51.656;16.106;2023-10-19T14:49:19;20;15;11
77538;PMS7003;67783;51.656;16.106;2023-10-19T14:52:21;19;17;11
77538;PMS7003;67783;51.656;16.106;2023-10-19T14:55:27;18;15;9
77538;PMS7003;67783;51.656;16.106;2023-10-19T14:58:29;16;15;11
77538;PMS7003;67783;51.656;16.106;2023-10-19T15:01:32;14;13;10
77538;PMS7003;67783;51.656;16.106;2023-10-19T15:04:34;19;16;10
77538;PMS7003;67783;51.656;16.106;2023-10-19T15:07:42;14;12;10
77538;PMS7003;67783;51.656;16.106;2023-10-19T15:10:48;17;17;9
77538;PMS7003;67783;51.656;16.106;2023-10-19T15:13:49;14;14;10
77538;PMS7003;67783;51.656;16.106;2023-10-19T15:16:51;14;14;10
77538;PMS7003;67783;51.656;16.106;2023-10-19T15:19:53;14;11;5
77538;PMS7003;67783;51.656;16.106;2023-10-19T15:22:54;15;13;9
77538;PMS7003;67783;51.656;16.106;2023-10-19T15:25:56;13;12;9
77538;PMS7003;67783;51.656;16.106;2023-10-19T15:28:57;18;14;10
77538;PMS7003;67783;51.656;16.106;2023-10-19T15:32:03;21;17;11
77538;PMS7003;67783;51.656;16.106;2023-10-19T15:35:05;19;17;11
77538;PMS7003;67783;51.656;16.106;2023-10-19T15:38:10;13;11;9
77538;PMS7003;67783;51.656;16.106;2023-10-19T15:41:12;18;15;10
77538;PMS7003;67783;51.656;16.106;2023-10-19T15:44:16;18;17;12
77538;PMS7003;67783;51.656;16.106;2023-10-19T15:47:23;23;20;13
77538;PMS7003;67783;51.656;16.106;2023-10-19T15:50:27;15;15;9
77538;PMS7003;67783;51.656;16.106;2023-10-19T15:53:30;22;21;15
77538;PMS7003;67783;51.656;16.106;2023-10-19T15:56:37;16;15;9
77538;PMS7003;67783;51.656;16.106;2023-10-19T15:59:38;24;22;13
77538;PMS7003;67783;51.656;16.106;2023-10-19T16:02:44;18;17;11
77538;PMS7003;67783;51.656;16.106;2023-10-19T16:05:46;17;17;11
77538;PMS7003;67783;51.656;16.106;2023-10-19T16:08:47;29;27;18
77538;PMS7003;67783;51.656;16.106;2023-10-19T16:11:49;23;20;11
77538;PMS7003;67783;51.656;16.106;2023-10-19T16:14:52;18;17;11
77538;PMS7003;67783;51.656;16.106;2023-10-19T16:17:54;20;18;13
77538;PMS7003;67783;51.656;16.106;2023-10-19T16:20:55;22;20;9
77538;PMS7003;67783;51.656;16.106;2023-10-19T16:24:00;20;20;16
77538;PMS7003;67783;51.656;16.106;2023-10-19T16:27:02;24;18;14
77538;PMS7003;67783;51.656;16.106;2023-10-19T16:30:04;23;22;14
77538;PMS7003;67783;51.656;16.106;2023-10-19T16:33:27;22;21;14
77538;PMS7003;67783;51.656;16.106;2023-10-19T16:36:28;26;22;14
77538;PMS7003;67783;51.656;16.106;2023-10-19T16:39:30;21;17;11
77538;PMS7003;67783;51.656;16.106;2023-10-19T16:42:33;26;22;15
77538;PMS7003;67783;51.656;16.106;2023-10-19T16:45:35;28;22;14
77538;PMS7003;67783;51.656;16.106;2023-10-19T16:48:48;22;19;11
77538;PMS7003;67783;51.656;16.106;2023-10-19T16:51:50;29;23;13
77538;PMS7003;67783;51.656;16.106;2023-10-19T16:54:52;24;20;14
77538;PMS7003;67783;51.656;16.106;2023-10-19T16:57:53;26;21;13
77538;PMS7003;67783;51.656;16.106;2023-10-19T17:00:58;26;24;13
77538;PMS7003;67783;51.656;16.106;2023-10-19T17:04:09;30;24;14
77538;PMS7003;67783;51.656;16.106;2023-10-19T17:07:12;24;23;13
77538;PMS7003;67783;51.656;16.106;2023-10-19T17:10:15;27;23;14
77538;PMS7003;67783;51.656;16.106;2023-10-19T17:13:17;25;22;11
77538;PMS7003;67783;51.656;16.106;2023-10-19T17:16:20;25;23;15
77538;PMS7003;67783;51.656;16.106;2023-10-19T17:19:30;24;22;12
77538;PMS7003;67783;51.656;16.106;2023-10-19T17:22:31;23;20;13
77538;PMS7003;67783;51.656;16.106;2023-10-19T17:25:33;32;26;16
77538;PMS7003;67783;51.656;16.106;2023-10-19T17:28:36;28;23;14
77538;PMS7003;67783;51.656;16.106;2023-10-19T17:31:38;30;26;16
77538;PMS7003;67783;51.656;16.106;2023-10-19T17:34:51;33;25;17
77538;PMS7003;67783;51.656;16.106;2023-10-19T17:37:53;23;21;12
77538;PMS7003;67783;51.656;16.106;2023-10-19T17:40:55;27;24;16
77538;PMS7003;67783;51.656;16.106;2023-10-19T17:43:56;28;23;15
77538;PMS7003;67783;51.656;16.106;2023-10-19T17:46:58;32;24;14
77538;PMS7003;67783;51.656;16.106;2023-10-19T17:49:59;23;22;16
77538;PMS7003;67783;51.656;16.106;2023-10-19T17:53:01;26;23;13
77538;PMS7003;67783;51.656;16.106;2023-10-19T17:56:06;24;22;14
77538;PMS7003;67783;51.656;16.106;2023-10-19T17:59:08;25;21;15
77538;PMS7003;67783;51.656;16.106;2023-10-19T18:02:12;27;25;13
77538;PMS7003;67783;51.656;16.106;2023-10-19T18:05:13;28;26;14
77538;PMS7003;67783;51.656;16.106;2023-10-19T18:08:15;25;20;13
77538;PMS7003;67783;51.656;16.106;2023-10-19T18:11:27;28;25;13
77538;PMS7003;67783;51.656;16.106;2023-10-19T18:14:28;27;24;13
77538;PMS7003;67783;51.656;16.106;2023-10-19T18:17:30;34;29;17
77538;PMS7003;67783;51.656;16.106;2023-10-19T18:20:32;31;29;19
77538;PMS7003;67783;51.656;16.106;2023-10-19T18:23:33;27;23;14
77538;PMS7003;67783;51.656;16.106;2023-10-19T18:26:36;24;23;14
77538;PMS7003;67783;51.656;16.106;2023-10-19T18:29:38;28;24;16
77538;PMS7003;67783;51.656;16.106;2023-10-19T18:32:43;27;25;16
77538;PMS7003;67783;51.656;16.106;2023-10-19T18:35:44;30;23;16
77538;PMS7003;67783;51.656;16.106;2023-10-19T18:38:49;29;20;14
77538;PMS7003;67783;51.656;16.106;2023-10-19T18:41:51;36;26;16
77538;PMS7003;67783;51.656;16.106;2023-10-19T18:44:53;32;26;18
77538;PMS7003;67783;51.656;16.106;2023-10-19T18:48:04;27;25;15
77538;PMS7003;67783;51.656;16.106;2023-10-19T18:51:06;31;27;18
77538;PMS7003;67783;51.656;16.106;2023-10-19T18:54:10;33;23;17
77538;PMS7003;67783;51.656;16.106;2023-10-19T18:57:18;40;25;17
77538;PMS7003;67783;51.656;16.106;2023-10-19T19:00:19;24;22;15
77538;PMS7003;67783;51.656;16.106;2023-10-19T19:03:24;35;28;18
77538;PMS7003;67783;51.656;16.106;2023-10-19T19:06:27;30;27;19
77538;PMS7003;67783;51.656;16.106;2023-10-19T19:09:30;33;25;16
77538;PMS7003;67783;51.656;16.106;2023-10-19T19:12:31;34;25;12
77538;PMS7003;67783;51.656;16.106;2023-10-19T19:15:34;33;27;17
77538;PMS7003;67783;51.656;16.106;2023-10-19T19:18:45;29;26;14
77538;PMS7003;67783;51.656;16.106;2023-10-19T19:21:47;27;26;18
77538;PMS7003;67783;51.656;16.106;2023-10-19T19:24:52;33;23;15
77538;PMS7003;67783;51.656;16.106;2023-10-19T19:27:54;34;26;18
77538;PMS7003;67783;51.656;16.106;2023-10-19T19:30:56;25;23;14
77538;PMS7003;67783;51.656;16.106;2023-10-19T19:34:06;24;20;16
77538;PMS7003;67783;51.656;16.106;2023-10-19T19:37:08;24;21;13
77538;PMS7003;67783;51.656;16.106;2023-10-19T19:40:10;30;25;15
77538;PMS7003;67783;51.656;16.106;2023-10-19T19:43:18;29;20;14
77538;PMS7003;67783;51.656;16.106;2023-10-19T19:46:20;33;24;15
77538;PMS7003;67783;51.656;16.106;2023-10-19T19:49:28;15;10;8
77538;PMS7003;67783;51.656;16.106;2023-10-19T19:52:29;24;20;14
77538;PMS7003;67783;51.656;16.106;2023-10-19T19:55:31;29;23;12
77538;PMS7003;67783;51.656;16.106;2023-10-19T19:58:33;27;24;13
77538;PMS7003;67783;51.656;16.106;2023-10-19T20:01:34;32;22;13
77538;PMS7003;67783;51.656;16.106;2023-10-19T20:04:37;27;24;16
77538;PMS7003;67783;51.656;16.106;2023-10-19T20:07:40;26;24;14
77538;PMS7003;67783;51.656;16.106;2023-10-19T20:10:45;22;15;9
77538;PMS7003;67783;51.656;16.106;2023-10-19T20:13:47;33;23;15